createdAt,value
2022-11-05T00:01:41.127Z,14.70
2022-11-05T00:04:30.736Z,15.05
2022-11-05T00:07:21.385Z,14.15
2022-11-05T00:09:48.829Z,13.40
2022-11-05T00:15:19.344Z,13.23
2022-11-05T00:17:46.007Z,12.30
2022-11-05T00:20:15.639Z,11.98
2022-11-05T00:23:00.707Z,12.93
2022-11-05T00:25:29.785Z,13.30
2022-11-05T00:28:01.344Z,11.88
2022-11-05T00:30:28.896Z,12.75
2022-11-05T00:33:01.292Z,11.45
2022-11-05T00:35:28.001Z,12.13
2022-11-05T00:37:54.670Z,12.60
2022-11-05T00:40:21.463Z,11.57
2022-11-05T00:43:06.923Z,12.02
2022-11-05T00:45:33.613Z,12.32
2022-11-05T00:48:18.862Z,11.80
2022-11-05T00:50:45.948Z,11.98
2022-11-05T00:53:13.010Z,12.43
2022-11-05T00:55:41.969Z,12.57
2022-11-05T00:58:13.956Z,13.60
2022-11-05T01:00:43.315Z,14.40
2022-11-05T01:03:13.301Z,13.98
2022-11-05T01:05:43.306Z,15.13
2022-11-05T01:08:11.417Z,14.85
2022-11-05T01:10:52.371Z,14.95
2022-11-05T01:13:22.321Z,13.88
2022-11-05T01:15:50.836Z,14.10
2022-11-05T01:18:18.867Z,13.63
2022-11-05T01:20:45.722Z,13.05
2022-11-05T01:23:13.890Z,13.88
2022-11-05T01:25:42.292Z,13.68
2022-11-05T01:28:09.855Z,13.32
2022-11-05T01:30:37.244Z,13.00
2022-11-05T01:35:30.639Z,13.30
2022-11-05T01:37:57.359Z,9.30
2022-11-05T01:40:25.148Z,12.95
2022-11-05T01:42:51.837Z,13.50
2022-11-05T01:45:27.280Z,12.23
2022-11-05T01:48:11.111Z,13.60
2022-11-05T01:50:43.607Z,13.15
2022-11-05T01:53:19.140Z,12.68
2022-11-05T01:56:00.901Z,11.88
2022-11-05T01:58:33.733Z,12.10
2022-11-05T02:01:00.885Z,12.10
2022-11-05T02:03:28.735Z,11.95
2022-11-05T02:05:57.132Z,11.55
2022-11-05T02:08:48.587Z,10.68
2022-11-05T02:11:18.326Z,11.63
2022-11-05T02:13:46.202Z,11.05
2022-11-05T02:16:23.171Z,10.88
2022-11-05T02:19:10.646Z,10.82
2022-11-05T02:21:54.317Z,10.80
2022-11-05T02:24:29.958Z,11.45
2022-11-05T02:27:04.664Z,12.35
2022-11-05T02:29:48.332Z,11.27
2022-11-05T02:32:33.297Z,12.35
2022-11-05T02:35:27.067Z,10.60
2022-11-05T02:38:16.923Z,9.50
2022-11-05T02:41:24.022Z,9.48
2022-11-05T02:44:17.110Z,11.15
2022-11-05T02:47:03.186Z,12.13
2022-11-05T02:49:44.007Z,11.73
2022-11-05T02:52:22.170Z,11.35
2022-11-05T02:55:08.407Z,11.88
2022-11-05T02:57:36.734Z,12.63
2022-11-05T03:00:28.110Z,12.60
2022-11-05T03:02:55.163Z,12.50
2022-11-05T03:05:29.358Z,12.75
2022-11-05T03:08:11.236Z,11.70
2022-11-05T03:10:50.451Z,12.07
2022-11-05T03:13:39.997Z,10.90
2022-11-05T03:16:17.234Z,12.05
2022-11-05T03:18:58.463Z,10.27
2022-11-05T03:21:36.884Z,10.38
2022-11-05T03:24:17.770Z,9.57
2022-11-05T03:27:02.391Z,10.32
2022-11-05T03:29:36.114Z,10.50
2022-11-05T03:32:05.133Z,10.63
2022-11-05T03:34:36.803Z,10.43
2022-11-05T03:37:05.201Z,10.50
2022-11-05T03:39:43.050Z,10.95
2022-11-05T03:42:14.111Z,10.80
2022-11-05T03:44:45.452Z,11.07
2022-11-05T03:47:17.188Z,11.60
2022-11-05T03:50:07.117Z,10.60
2022-11-05T03:52:40.076Z,10.45
2022-11-05T03:55:07.141Z,10.27
2022-11-05T03:57:38.412Z,10.48
2022-11-05T04:00:09.494Z,10.32
2022-11-05T04:02:38.846Z,11.57
2022-11-05T04:05:06.181Z,10.48
2022-11-05T04:07:51.451Z,11.60
2022-11-05T04:10:36.888Z,11.18
2022-11-05T04:13:22.277Z,11.18
2022-11-05T04:16:07.759Z,11.43
2022-11-05T04:18:34.549Z,11.77
2022-11-05T04:21:19.860Z,11.40
2022-11-05T04:24:05.284Z,11.43
2022-11-05T04:26:31.975Z,11.07
2022-11-05T04:29:17.322Z,12.00
2022-11-05T04:31:44.013Z,10.30
2022-11-05T04:34:10.681Z,10.43
2022-11-05T04:36:37.362Z,9.63
2022-11-05T04:39:04.099Z,9.75
2022-11-05T04:41:30.754Z,9.88
2022-11-05T04:43:57.414Z,9.85
2022-11-05T04:46:24.079Z,8.82
2022-11-05T04:48:50.784Z,5.82
2022-11-05T04:51:17.649Z,6.00
2022-11-05T04:53:44.347Z,5.50
2022-11-05T04:56:23.299Z,7.07
2022-11-05T04:58:50.907Z,8.20
2022-11-05T05:01:23.422Z,9.38
2022-11-05T05:03:51.798Z,9.48
2022-11-05T05:06:18.921Z,9.27
2022-11-05T05:08:48.086Z,9.82
2022-11-05T05:11:16.991Z,10.02
2022-11-05T05:13:43.839Z,9.57
2022-11-05T05:16:21.274Z,9.70
2022-11-05T05:18:48.923Z,8.13
2022-11-05T05:21:36.347Z,9.77
2022-11-05T05:24:03.302Z,10.15
2022-11-05T05:26:30.099Z,10.55
2022-11-05T05:28:56.859Z,10.23
2022-11-05T05:31:23.879Z,10.13
2022-11-05T05:33:53.808Z,10.32
2022-11-05T05:36:21.450Z,8.48
2022-11-05T05:38:48.192Z,8.70
2022-11-05T05:41:15.262Z,7.72
2022-11-05T05:43:42.144Z,6.95
2022-11-05T05:46:12.410Z,5.55
2022-11-05T05:48:39.521Z,6.53
2022-11-05T05:51:08.290Z,6.25
2022-11-05T05:53:35.959Z,6.63
2022-11-05T05:56:03.419Z,6.25
2022-11-05T06:01:04.458Z,7.70
2022-11-05T06:03:31.192Z,7.45
2022-11-05T06:06:13.040Z,7.63
2022-11-05T06:08:40.270Z,8.23
2022-11-05T06:11:07.583Z,8.05
2022-11-05T06:16:02.859Z,8.65
2022-11-05T06:18:31.091Z,8.13
2022-11-05T06:21:06.031Z,9.80
2022-11-05T06:23:33.944Z,9.77
2022-11-05T06:26:01.978Z,10.02
2022-11-05T06:28:29.553Z,9.93
2022-11-05T06:30:57.564Z,12.23
2022-11-05T06:33:24.454Z,16.83
2022-11-05T06:35:51.498Z,18.67
2022-11-05T06:38:18.456Z,11.73
2022-11-05T06:40:45.175Z,10.93
2022-11-05T06:43:12.323Z,19.00
2022-11-05T06:45:39.284Z,21.02
2022-11-05T06:48:06.208Z,14.35
2022-11-05T06:50:32.886Z,13.98
2022-11-05T06:53:01.981Z,13.35
2022-11-05T06:55:30.748Z,13.30
2022-11-05T06:57:58.097Z,13.40
2022-11-05T07:00:25.132Z,13.05
2022-11-05T07:02:51.877Z,11.30
2022-11-05T07:05:18.575Z,12.15
2022-11-05T07:07:45.765Z,12.23
2022-11-05T07:10:15.396Z,12.38
2022-11-05T07:12:42.845Z,14.23
2022-11-05T07:17:37.051Z,13.45
2022-11-05T07:20:05.905Z,8.48
2022-11-05T07:22:33.488Z,12.60
2022-11-05T07:25:00.316Z,14.35
2022-11-05T07:27:27.048Z,13.25
2022-11-05T07:29:53.715Z,13.43
2022-11-05T07:32:20.394Z,13.77
2022-11-05T07:34:47.157Z,14.68
2022-11-05T07:37:16.529Z,14.55
2022-11-05T07:39:43.326Z,16.23
2022-11-05T07:42:13.729Z,14.48
2022-11-05T07:44:40.856Z,13.93
2022-11-05T07:47:07.656Z,15.57
2022-11-05T07:49:34.351Z,15.13
2022-11-05T07:52:01.023Z,10.65
2022-11-05T07:54:27.760Z,14.65
2022-11-05T07:56:54.472Z,13.75
2022-11-05T07:59:21.173Z,13.02
2022-11-05T08:01:47.980Z,13.25
2022-11-05T08:04:14.854Z,13.18
2022-11-05T08:06:41.623Z,12.77
2022-11-05T08:09:08.999Z,14.43
2022-11-05T08:14:02.575Z,11.65
2022-11-05T08:16:29.326Z,12.45
2022-11-05T08:18:55.992Z,12.50
2022-11-05T08:21:22.674Z,13.25
2022-11-05T08:23:49.346Z,12.32
2022-11-05T08:26:16.076Z,12.45
2022-11-05T08:28:42.761Z,11.18
2022-11-05T08:31:09.434Z,9.10
2022-11-05T08:33:36.326Z,11.23
2022-11-05T08:36:04.506Z,11.05
2022-11-05T08:38:31.697Z,11.73
2022-11-05T08:40:58.568Z,11.30
2022-11-05T08:43:25.578Z,11.77
2022-11-05T08:45:52.369Z,11.38
2022-11-05T08:48:19.563Z,10.07
2022-11-05T08:50:48.112Z,11.93
2022-11-05T08:53:15.974Z,10.88
2022-11-05T08:55:43.897Z,12.00
2022-11-05T08:58:14.895Z,10.50
2022-11-05T09:00:42.597Z,11.10
2022-11-05T09:03:09.959Z,11.25
2022-11-05T09:05:39.278Z,11.20
2022-11-05T09:08:07.613Z,11.18
2022-11-05T09:10:35.078Z,12.63
2022-11-05T09:13:02.159Z,12.75
2022-11-05T09:15:30.375Z,11.23
2022-11-05T09:17:57.156Z,12.98
2022-11-05T09:20:23.987Z,12.60
2022-11-05T09:22:50.736Z,11.65
2022-11-05T09:25:17.532Z,12.13
2022-11-05T09:27:44.487Z,11.05
2022-11-05T09:30:13.350Z,10.63
2022-11-05T09:32:40.190Z,10.30
2022-11-05T09:35:07.810Z,11.27
2022-11-05T09:37:35.056Z,14.00
2022-11-05T09:40:01.757Z,11.43
2022-11-05T09:42:46.973Z,11.40
2022-11-05T09:45:19.764Z,11.02
2022-11-05T09:47:53.517Z,11.63
2022-11-05T09:50:27.523Z,11.52
2022-11-05T09:52:54.247Z,12.35
2022-11-05T09:55:34.775Z,10.43
2022-11-05T09:58:06.510Z,11.10
2022-11-05T10:00:33.875Z,11.88
2022-11-05T10:05:34.373Z,10.65
2022-11-05T10:08:27.284Z,10.82
2022-11-05T10:11:07.168Z,13.25
2022-11-05T10:13:39.906Z,14.73
2022-11-05T10:16:12.515Z,12.77
2022-11-05T10:18:42.875Z,11.18
2022-11-05T10:21:17.091Z,10.55
2022-11-05T10:23:46.800Z,10.30
2022-11-05T10:26:21.757Z,10.57
2022-11-05T10:28:50.622Z,9.57
2022-11-05T10:31:23.236Z,10.80
2022-11-05T10:34:17.766Z,10.30
2022-11-05T10:36:44.498Z,10.57
2022-11-05T10:39:19.066Z,10.10
2022-11-05T10:42:26.729Z,10.23
2022-11-05T10:45:18.091Z,11.35
2022-11-05T10:47:49.019Z,10.65
2022-11-05T10:50:21.247Z,10.68
2022-11-05T10:53:02.458Z,10.70
2022-11-05T10:55:31.565Z,11.35
2022-11-05T10:58:16.416Z,12.27
2022-11-05T11:00:45.173Z,10.57
2022-11-05T11:03:33.598Z,11.07
2022-11-05T11:06:02.495Z,9.85
2022-11-05T11:08:30.735Z,11.00
2022-11-05T11:11:02.065Z,11.27
2022-11-05T11:13:49.095Z,11.00
2022-11-05T11:16:21.637Z,12.02
2022-11-05T11:18:56.797Z,9.98
2022-11-05T11:21:23.775Z,10.65
2022-11-05T11:23:58.967Z,10.43
2022-11-05T11:26:28.702Z,9.40
2022-11-05T11:29:01.738Z,9.70
2022-11-05T11:31:31.468Z,10.23
2022-11-05T11:34:02.808Z,9.00
2022-11-05T11:36:42.770Z,9.25
2022-11-05T11:39:19.496Z,9.18
2022-11-05T11:41:50.947Z,7.68
2022-11-05T11:44:29.525Z,7.50
2022-11-05T11:47:03.180Z,8.07
2022-11-05T11:49:53.632Z,8.65
2022-11-05T11:52:34.469Z,7.82
2022-11-05T11:55:13.327Z,7.70
2022-11-05T11:57:46.844Z,8.73
2022-11-05T12:00:15.196Z,8.13
2022-11-05T12:02:50.741Z,8.27
2022-11-05T12:05:38.706Z,9.32
2022-11-05T12:08:45.350Z,7.07
2022-11-05T12:11:25.370Z,9.15
2022-11-05T12:14:10.708Z,8.63
2022-11-05T12:17:04.170Z,8.65
2022-11-05T12:20:08.543Z,8.63
2022-11-05T12:22:44.080Z,8.63
2022-11-05T12:25:10.739Z,8.77
2022-11-05T12:28:13.915Z,8.30
2022-11-05T12:30:50.416Z,8.40
2022-11-05T12:33:21.594Z,7.95
2022-11-05T12:35:57.438Z,7.90
2022-11-05T12:38:57.291Z,8.27
2022-11-05T12:41:29.863Z,8.02
2022-11-05T12:44:32.913Z,7.97
2022-11-05T12:47:26.750Z,7.20
2022-11-05T12:50:00.031Z,7.70
2022-11-05T12:52:57.610Z,7.85
2022-11-05T12:55:26.178Z,7.63
2022-11-05T12:57:57.055Z,6.97
2022-11-05T13:00:26.106Z,7.63
2022-11-05T13:03:07.841Z,7.55
2022-11-05T13:06:02.905Z,7.75
2022-11-05T13:09:07.412Z,7.55
2022-11-05T13:11:40.108Z,8.13
2022-11-05T13:14:14.396Z,8.65
2022-11-05T13:16:46.133Z,8.40
2022-11-05T13:19:24.273Z,7.47
2022-11-05T13:21:56.491Z,7.68
2022-11-05T13:24:38.547Z,8.82
2022-11-05T13:27:42.345Z,8.43
2022-11-05T13:30:15.575Z,7.50
2022-11-05T13:32:47.052Z,7.60
2022-11-05T13:35:27.662Z,8.27
2022-11-05T13:38:17.648Z,8.77
2022-11-05T13:40:53.285Z,8.93
2022-11-05T13:44:02.078Z,8.73
2022-11-05T13:46:31.495Z,9.10
2022-11-05T13:49:16.459Z,9.30
2022-11-05T13:52:25.906Z,8.95
2022-11-05T13:54:59.864Z,10.38
2022-11-05T13:57:37.346Z,9.38
2022-11-05T14:00:06.813Z,9.70
2022-11-05T14:02:41.375Z,10.48
2022-11-05T14:05:21.707Z,9.77
2022-11-05T14:07:49.272Z,9.70
2022-11-05T14:10:42.319Z,10.02
2022-11-05T14:13:27.212Z,9.45
2022-11-05T14:16:08.107Z,10.57
2022-11-05T14:18:44.882Z,9.70
2022-11-05T14:21:48.628Z,9.45
2022-11-05T14:24:43.353Z,10.75
2022-11-05T14:27:13.061Z,9.60
2022-11-05T14:29:44.968Z,10.02
2022-11-05T14:32:18.598Z,10.30
2022-11-05T14:35:12.484Z,10.02
2022-11-05T14:37:50.561Z,9.68
2022-11-05T14:40:37.114Z,8.52
2022-11-05T14:43:27.588Z,8.05
2022-11-05T14:46:08.571Z,12.13
2022-11-05T14:48:40.888Z,11.13
2022-11-05T14:51:31.024Z,12.30
2022-11-05T14:54:00.202Z,10.80
2022-11-05T14:56:27.012Z,11.77
2022-11-05T14:59:25.699Z,11.60
2022-11-05T15:01:57.481Z,11.45
2022-11-05T15:04:45.253Z,11.95
2022-11-05T15:07:29.485Z,11.97
2022-11-05T15:10:13.594Z,10.93
2022-11-05T15:12:53.902Z,11.13
2022-11-05T15:15:29.672Z,11.18
2022-11-05T15:18:21.840Z,10.93
2022-11-05T15:20:52.690Z,9.90
2022-11-05T15:23:25.171Z,11.45
2022-11-05T15:26:23.636Z,16.52
2022-11-05T15:28:52.596Z,15.98
2022-11-05T15:31:33.984Z,14.25
2022-11-05T15:34:17.828Z,16.30
2022-11-05T15:37:19.967Z,16.50
2022-11-05T15:39:48.671Z,16.67
2022-11-05T15:42:26.190Z,16.30
2022-11-05T15:44:57.855Z,14.38
2022-11-05T15:47:25.768Z,15.13
2022-11-05T15:49:55.754Z,15.43
2022-11-05T15:52:33.626Z,18.20
2022-11-05T15:55:29.634Z,18.38
2022-11-05T15:58:04.575Z,19.65
2022-11-05T16:00:34.741Z,20.02
2022-11-05T16:03:16.163Z,32.70
2022-11-05T16:05:45.415Z,38.60
2022-11-05T16:08:18.467Z,52.72
2022-11-05T16:10:54.252Z,48.03
2022-11-05T16:13:39.005Z,32.30
2022-11-05T16:16:15.899Z,31.63
2022-11-05T16:18:43.787Z,29.30
2022-11-05T16:21:18.183Z,28.27
2022-11-05T16:23:48.980Z,28.80
2022-11-05T16:27:01.272Z,27.02
2022-11-05T16:29:30.972Z,27.48
2022-11-05T16:31:59.938Z,27.35
2022-11-05T16:34:38.343Z,27.90
2022-11-05T16:37:08.076Z,28.95
2022-11-05T16:39:34.787Z,31.10
2022-11-05T16:42:01.496Z,30.33
2022-11-05T16:44:28.203Z,36.42
2022-11-05T16:46:54.931Z,33.88
2022-11-05T16:49:21.699Z,29.52
2022-11-05T16:51:48.507Z,28.70
2022-11-05T16:54:15.251Z,29.75
2022-11-05T16:56:43.766Z,29.10
2022-11-05T16:59:13.120Z,35.22
2022-11-05T17:01:42.125Z,31.52
2022-11-05T17:04:11.428Z,30.02
2022-11-05T17:06:38.288Z,30.27
2022-11-05T17:09:04.988Z,31.80
2022-11-05T17:11:31.686Z,24.60
2022-11-05T17:13:58.364Z,30.88
2022-11-05T17:16:26.250Z,32.28
2022-11-05T17:18:52.940Z,31.67
2022-11-05T17:21:19.631Z,31.75
2022-11-05T17:23:46.459Z,31.55
2022-11-05T17:26:13.617Z,25.85
2022-11-05T17:28:41.048Z,20.83
2022-11-05T17:33:35.459Z,17.40
2022-11-05T17:36:10.892Z,15.15
2022-11-05T17:38:37.723Z,15.63
2022-11-05T17:41:12.230Z,17.95
2022-11-05T17:43:39.054Z,17.02
2022-11-05T17:46:10.671Z,14.95
2022-11-05T17:48:38.464Z,16.27
2022-11-05T17:51:08.194Z,18.13
2022-11-05T17:53:35.309Z,18.85
2022-11-05T17:56:02.336Z,19.17
2022-11-05T17:58:29.003Z,18.48
2022-11-05T18:00:55.680Z,18.65
2022-11-05T18:03:22.376Z,18.75
2022-11-05T18:05:49.092Z,19.45
2022-11-05T18:08:15.799Z,18.95
2022-11-05T18:10:42.594Z,18.95
2022-11-05T18:13:10.665Z,20.33
2022-11-05T18:15:40.894Z,19.13
2022-11-05T18:18:08.284Z,19.08
2022-11-05T18:23:01.899Z,20.45
2022-11-05T18:25:28.623Z,20.25
2022-11-05T18:27:55.507Z,21.77
2022-11-05T18:30:22.316Z,25.23
2022-11-05T18:32:50.934Z,28.08
2022-11-05T18:35:17.703Z,25.95
2022-11-05T18:37:44.455Z,25.67
2022-11-05T18:40:11.460Z,23.35
2022-11-05T18:42:38.480Z,22.95
2022-11-05T18:45:06.610Z,26.42
2022-11-05T18:47:34.233Z,28.83
2022-11-05T18:50:01.633Z,29.63
2022-11-05T18:52:31.445Z,29.98
2022-11-05T18:54:59.051Z,29.38
2022-11-05T18:57:26.735Z,29.83
2022-11-05T18:59:53.428Z,27.92
2022-11-05T19:02:20.432Z,26.23
2022-11-05T19:05:14.054Z,25.08
2022-11-05T19:07:37.353Z,28.33
2022-11-05T19:10:05.035Z,26.55
2022-11-05T19:12:31.876Z,26.25
2022-11-05T19:15:02.373Z,26.85
2022-11-05T19:17:30.767Z,26.88
2022-11-05T19:19:57.549Z,27.75
2022-11-05T19:22:25.841Z,27.85
2022-11-05T19:24:52.871Z,25.75
2022-11-05T19:27:19.975Z,26.50
2022-11-05T19:29:47.261Z,29.02
2022-11-05T19:32:13.963Z,25.88
2022-11-05T19:34:40.651Z,24.83
2022-11-05T19:37:08.148Z,26.48
2022-11-05T19:39:35.703Z,24.88
2022-11-05T19:42:03.896Z,24.38
2022-11-05T19:44:30.894Z,22.98
2022-11-05T19:46:57.696Z,22.70
2022-11-05T19:49:24.589Z,21.52
2022-11-05T19:51:51.254Z,22.77
2022-11-05T19:54:18.027Z,34.08
2022-11-05T19:56:45.584Z,37.03
2022-11-05T19:59:12.923Z,32.13
2022-11-05T20:04:06.570Z,28.67
2022-11-05T20:06:38.592Z,32.25
2022-11-05T20:09:27.114Z,28.20
2022-11-05T20:14:22.973Z,24.03
2022-11-05T20:16:50.410Z,21.63
2022-11-05T20:19:20.064Z,21.67
2022-11-05T20:21:47.076Z,22.63
2022-11-05T20:24:22.355Z,33.42
2022-11-05T20:26:51.578Z,34.53
2022-11-05T20:29:18.307Z,38.72
2022-11-05T20:31:45.049Z,49.50
2022-11-05T20:34:11.739Z,40.47
2022-11-05T20:36:39.510Z,23.45
2022-11-05T20:39:06.200Z,22.48
2022-11-05T20:41:33.204Z,26.77
2022-11-05T20:44:00.035Z,21.45
2022-11-05T20:46:27.079Z,18.35
2022-11-05T20:48:54.100Z,16.17
2022-11-05T20:51:22.855Z,15.63
2022-11-05T20:53:53.759Z,14.50
2022-11-05T20:56:23.134Z,17.30
2022-11-05T20:58:50.448Z,16.33
2022-11-05T21:03:45.699Z,16.17
2022-11-05T21:06:13.417Z,16.00
2022-11-05T21:08:40.250Z,22.73
2022-11-05T21:11:07.296Z,24.98
2022-11-05T21:13:34.719Z,24.17
2022-11-05T21:18:32.826Z,21.65
2022-11-05T21:21:02.434Z,19.52
2022-11-05T21:23:29.271Z,20.85
2022-11-05T21:25:56.036Z,20.02
2022-11-05T21:28:23.431Z,15.38
2022-11-05T21:33:18.400Z,11.88
2022-11-05T21:35:47.360Z,12.93
2022-11-05T21:38:16.727Z,11.77
2022-11-05T21:40:44.977Z,10.07
2022-11-05T21:43:12.463Z,9.93
2022-11-05T21:45:41.078Z,10.93
2022-11-05T21:48:08.666Z,13.13
2022-11-05T21:50:56.744Z,13.73
2022-11-05T21:53:42.324Z,11.70
2022-11-05T21:56:40.502Z,7.38
2022-11-05T21:59:28.490Z,5.82
2022-11-05T22:02:01.241Z,5.43
2022-11-05T22:04:37.568Z,5.70
2022-11-05T22:07:05.784Z,6.55
2022-11-05T22:09:32.850Z,7.15
2022-11-05T22:12:00.233Z,6.63
2022-11-05T22:16:54.330Z,6.65
2022-11-05T22:19:23.180Z,6.70
2022-11-05T22:21:50.303Z,7.68
2022-11-05T22:24:17.479Z,10.05
2022-11-05T22:26:45.293Z,13.50
2022-11-05T22:29:12.812Z,14.50
2022-11-05T22:31:39.985Z,15.57
2022-11-05T22:34:07.304Z,16.67
2022-11-05T22:39:01.915Z,10.13
2022-11-05T22:41:29.251Z,7.65
2022-11-05T22:46:25.024Z,5.03
2022-11-05T22:48:52.260Z,5.05
2022-11-05T22:51:21.965Z,5.22
2022-11-05T22:53:48.928Z,6.65
2022-11-05T22:56:18.207Z,9.27
2022-11-05T22:58:44.929Z,12.45
2022-11-05T23:01:12.753Z,11.30
2022-11-05T23:03:41.097Z,11.57
2022-11-05T23:06:31.290Z,11.73
2022-11-05T23:09:17.692Z,11.25
2022-11-05T23:11:47.980Z,8.32
2022-11-05T23:14:14.882Z,9.15
2022-11-05T23:17:01.263Z,8.85
2022-11-05T23:19:46.982Z,8.15
2022-11-05T23:22:38.213Z,8.20
2022-11-05T23:25:08.043Z,7.88
2022-11-05T23:27:37.508Z,6.75
2022-11-05T23:30:08.406Z,6.30
2022-11-05T23:32:35.773Z,5.18
2022-11-05T23:37:48.906Z,4.40
2022-11-05T23:40:27.539Z,3.47
2022-11-05T23:43:13.516Z,6.78
2022-11-05T23:45:57.638Z,8.35
2022-11-05T23:48:27.072Z,8.80
2022-11-05T23:51:01.959Z,8.32
2022-11-05T23:53:31.216Z,8.52
2022-11-05T23:56:07.476Z,7.93
2022-11-05T23:58:34.792Z,8.43
